Time;durP1;ratioP1;P1;durP2;ratioP2;P2;SDS_P1;SDS_P2;PMS_P1;PMS_P2;Temp;Humidity;BMP_temperature;BMP_pressure;BME280_temperature;BME280_humidity;BME280_pressure;Samples;Min_cycle;Max_cycle;Signal;HPM_P1;HPM_P2
2023/08/08 00:00:30;;;;;;;5.70;2.70;;;;;;;13.40;100.00;101255.53;1007897;29;20309;-88
2023/08/08 00:01:02;;;;;;;5.43;2.58;;;;;;;13.43;100.00;101255.13;997795;29;20303;-87
2023/08/08 00:01:35;;;;;;;2.65;2.28;;;;;;;13.41;100.00;101246.47;997935;29;20322;-87
2023/08/08 00:02:06;;;;;;;4.00;2.50;;;;;;;13.39;100.00;101254.72;1007340;29;20329;-87
2023/08/08 00:02:39;;;;;;;9.23;3.53;;;;;;;13.38;100.00;101255.78;1021949;29;20300;-87
2023/08/08 00:03:10;;;;;;;3.80;2.05;;;;;;;13.30;100.00;101246.19;1004785;29;20718;-88
2023/08/08 00:03:42;;;;;;;7.88;3.05;;;;;;;13.25;100.00;101243.38;1000533;29;20738;-87
2023/08/08 00:04:14;;;;;;;7.88;2.78;;;;;;;13.30;100.00;101240.84;1001802;29;20305;-87
2023/08/08 00:04:45;;;;;;;5.88;2.17;;;;;;;13.30;100.00;101243.53;1013970;29;20315;-87
2023/08/08 00:05:17;;;;;;;4.13;2.50;;;;;;;13.26;100.00;101242.34;1012565;29;20315;-87
2023/08/08 00:05:50;;;;;;;8.57;3.45;;;;;;;13.32;100.00;101242.47;1005195;29;20816;-87
2023/08/08 00:06:21;;;;;;;7.18;2.00;;;;;;;13.27;100.00;101240.47;1006054;29;20309;-87
2023/08/08 00:06:53;;;;;;;4.00;2.47;;;;;;;13.26;100.00;101245.03;1005650;29;20807;-87
2023/08/08 00:07:25;;;;;;;8.80;2.22;;;;;;;13.25;100.00;101243.38;1014662;29;20051;-87
2023/08/08 00:07:56;;;;;;;2.22;1.85;;;;;;;13.24;100.00;101244.44;1006357;29;20302;-87
2023/08/08 00:08:28;;;;;;;2.80;2.15;;;;;;;13.23;100.00;101245.47;1003136;29;20310;-87
2023/08/08 00:08:59;;;;;;;3.00;2.20;;;;;;;13.17;100.00;101238.34;1001072;29;20389;-87
2023/08/08 00:09:31;;;;;;;2.65;2.42;;;;;;;13.17;100.00;101246.38;1001566;29;20042;-87
2023/08/08 00:10:03;;;;;;;1.83;1.70;;;;;;;13.19;100.00;101244.28;999020;29;20335;-87
2023/08/08 00:10:35;;;;;;;3.10;1.90;;;;;;;13.16;100.00;101244.69;1009671;29;20313;-87
2023/08/08 00:11:07;;;;;;;3.13;2.53;;;;;;;13.09;100.00;101243.13;1006686;29;20393;-87
2023/08/08 00:11:39;;;;;;;3.15;1.80;;;;;;;13.09;100.00;101241.25;1004980;29;20314;-87
2023/08/08 00:12:11;;;;;;;4.57;2.30;;;;;;;13.10;100.00;101239.41;1005240;29;20700;-88
2023/08/08 00:12:43;;;;;;;2.08;1.88;;;;;;;13.11;100.00;101241.03;1007877;29;20313;-87
2023/08/08 00:13:14;;;;;;;3.47;1.70;;;;;;;13.12;100.00;101242.66;1009736;29;20302;-87
2023/08/08 00:13:46;;;;;;;4.03;1.90;;;;;;;13.10;100.00;101240.22;1011242;29;20040;-87
2023/08/08 00:14:18;;;;;;;2.05;1.85;;;;;;;13.06;100.00;101240.91;1005465;29;20117;-87
2023/08/08 00:14:49;;;;;;;3.47;1.95;;;;;;;13.04;100.00;101251.81;1012926;29;20817;-88
2023/08/08 00:15:21;;;;;;;2.88;1.85;;;;;;;12.99;100.00;101243.66;1012948;29;20048;-87
2023/08/08 00:16:11;;;;;;;1.98;1.60;;;;;;;13.03;100.00;101247.50;1012112;29;20073;-87
2023/08/08 00:16:43;;;;;;;2.83;1.92;;;;;;;13.03;100.00;101249.38;1007377;29;20128;-87
2023/08/08 00:17:15;;;;;;;2.45;1.95;;;;;;;12.94;100.00;101251.53;1006196;29;20314;-88
2023/08/08 00:17:46;;;;;;;2.28;2.03;;;;;;;12.92;100.00;101240.22;1009826;29;20053;-87
2023/08/08 00:18:18;;;;;;;3.55;1.90;;;;;;;13.00;100.00;101250.63;1005515;29;20065;-87
2023/08/08 00:18:52;;;;;;;3.10;1.90;;;;;;;13.05;100.00;101249.97;997216;29;20058;-88
2023/08/08 00:19:23;;;;;;;2.85;1.60;;;;;;;12.96;100.00;101252.13;1000302;29;20803;-87
2023/08/08 00:19:55;;;;;;;6.60;2.28;;;;;;;12.81;100.00;101247.09;1009404;29;20321;-87
2023/08/08 00:20:26;;;;;;;2.50;2.30;;;;;;;12.75;100.00;101248.00;1003048;29;20319;-87
2023/08/08 00:20:58;;;;;;;5.15;2.20;;;;;;;12.81;100.00;101241.75;1009597;29;20332;-87
2023/08/08 00:21:29;;;;;;;2.95;1.95;;;;;;;12.95;100.00;101247.81;1003609;29;20400;-87
2023/08/08 00:22:01;;;;;;;2.00;1.80;;;;;;;13.02;100.00;101242.38;1002237;29;20485;-87
2023/08/08 00:22:33;;;;;;;3.88;2.42;;;;;;;12.78;100.00;101241.41;1010145;29;20371;-87
2023/08/08 00:23:04;;;;;;;2.47;1.95;;;;;;;12.68;100.00;101240.06;1005907;29;20302;-87
2023/08/08 00:23:36;;;;;;;4.45;2.20;;;;;;;12.92;100.00;101242.91;1005389;29;20321;-87
2023/08/08 00:24:07;;;;;;;2.90;1.67;;;;;;;12.93;100.00;101244.53;1004935;29;20321;-87
2023/08/08 00:24:40;;;;;;;4.10;2.67;;;;;;;12.80;100.00;101244.66;1011787;29;20048;-87
2023/08/08 00:25:11;;;;;;;5.47;1.95;;;;;;;12.78;100.00;101244.06;1003967;29;20045;-87
2023/08/08 00:25:43;;;;;;;3.58;2.00;;;;;;;12.91;100.00;101242.09;1011071;29;20316;-87
2023/08/08 00:26:14;;;;;;;3.22;1.98;;;;;;;12.78;100.00;101252.09;1004505;29;20712;-87
2023/08/08 00:26:46;;;;;;;2.47;2.20;;;;;;;12.76;100.00;101240.78;1005910;29;20382;-87
2023/08/08 00:27:18;;;;;;;7.32;2.40;;;;;;;12.83;100.00;101237.00;1015188;29;20048;-87
2023/08/08 00:27:50;;;;;;;4.22;2.47;;;;;;;12.83;100.00;101237.00;1005500;29;20688;-87
2023/08/08 00:28:21;;;;;;;3.85;2.80;;;;;;;12.72;100.00;101242.28;1008856;29;20722;-87
2023/08/08 00:28:53;;;;;;;2.60;1.83;;;;;;;12.86;100.00;101233.06;1011999;29;20353;-87
2023/08/08 00:29:25;;;;;;;2.20;1.85;;;;;;;12.88;100.00;101228.34;1008788;29;20053;-88
2023/08/08 00:29:57;;;;;;;2.58;2.38;;;;;;;12.82;100.00;101231.88;1006079;29;20042;-87
2023/08/08 00:30:28;;;;;;;4.90;2.45;;;;;;;12.81;100.00;101235.59;1001349;29;20119;-87
2023/08/08 00:31:00;;;;;;;10.65;3.08;;;;;;;12.83;100.00;101233.53;1005956;29;20053;-87
2023/08/08 00:31:32;;;;;;;7.88;1.80;;;;;;;12.92;100.00;101234.88;1001602;29;20319;-87
2023/08/08 00:32:03;;;;;;;3.45;2.75;;;;;;;12.79;100.00;101238.50;1008751;29;20301;-88
2023/08/08 00:32:35;;;;;;;8.50;2.55;;;;;;;12.73;100.00;101238.56;1004178;29;20306;-87
2023/08/08 00:33:07;;;;;;;2.50;2.30;;;;;;;12.76;100.00;101232.78;1005119;29;20310;-87
2023/08/08 00:33:38;;;;;;;3.80;2.50;;;;;;;12.65;100.00;101237.81;1002953;29;20306;-87
2023/08/08 00:34:10;;;;;;;4.32;2.35;;;;;;;12.76;100.00;101238.94;1002501;29;20194;-87
2023/08/08 00:34:41;;;;;;;5.63;2.60;;;;;;;12.87;100.00;101240.88;1003907;29;20045;-87
2023/08/08 00:35:13;;;;;;;3.28;2.42;;;;;;;12.88;100.00;101241.72;1008515;29;20306;-87
2023/08/08 00:35:45;;;;;;;4.40;3.00;;;;;;;12.73;100.00;101235.91;1005426;29;20420;-87
2023/08/08 00:36:17;;;;;;;5.63;2.80;;;;;;;12.78;100.00;101236.88;1006040;29;20061;-88
2023/08/08 00:36:48;;;;;;;6.60;2.80;;;;;;;12.81;100.00;101241.75;998776;29;20042;-87
2023/08/08 00:37:21;;;;;;;6.40;3.03;;;;;;;12.86;100.00;101238.41;1001063;29;20444;-87
2023/08/08 00:37:52;;;;;;;3.75;2.45;;;;;;;12.65;100.00;101243.16;1000112;29;20682;-87
2023/08/08 00:38:24;;;;;;;5.40;2.60;;;;;;;12.71;100.00;101240.66;1001350;29;20050;-87
2023/08/08 00:38:56;;;;;;;8.00;2.80;;;;;;;12.55;100.00;101242.81;1002912;29;20413;-87
2023/08/08 00:39:27;;;;;;;5.05;2.20;;;;;;;12.67;100.00;101238.41;1006405;29;20048;-87
2023/08/08 00:39:59;;;;;;;5.28;2.40;;;;;;;12.67;100.00;101241.09;1006258;29;20310;-87
2023/08/08 00:40:31;;;;;;;4.50;2.30;;;;;;;12.60;100.00;101240.34;1008386;29;20044;-87
2023/08/08 00:41:04;;;;;;;5.95;3.40;;;;;;;12.66;100.00;101239.47;1001401;29;20071;-88
2023/08/08 00:41:37;;;;;;;4.18;2.80;;;;;;;12.63;100.00;101239.91;1005390;29;20313;-87
2023/08/08 00:42:08;;;;;;;7.00;3.20;;;;;;;12.74;100.00;101242.88;1004406;29;20341;-87
2023/08/08 00:42:41;;;;;;;5.45;2.88;;;;;;;12.76;100.00;101243.47;1008128;29;20132;-88
2023/08/08 00:43:12;;;;;;;6.88;2.92;;;;;;;12.80;100.00;101239.31;1004057;29;20317;-87
2023/08/08 00:43:44;;;;;;;4.68;3.13;;;;;;;12.79;100.00;101240.34;1014903;29;20327;-87
2023/08/08 00:44:15;;;;;;;7.03;3.30;;;;;;;12.71;100.00;101235.31;1004457;29;20060;-88
2023/08/08 00:44:47;;;;;;;3.42;2.38;;;;;;;12.72;100.00;101237.75;1012638;29;20308;-87
2023/08/08 00:45:19;;;;;;;6.53;3.07;;;;;;;12.72;100.00;101237.75;1011814;29;20048;-87
2023/08/08 00:45:50;;;;;;;6.50;3.08;;;;;;;12.74;100.00;101232.19;1012328;29;20308;-87
2023/08/08 00:46:24;;;;;;;6.00;2.83;;;;;;;12.79;100.00;101232.34;1005983;29;20124;-87
2023/08/08 00:46:56;;;;;;;3.85;2.75;;;;;;;12.75;100.00;101231.16;1006487;29;20328;-87
2023/08/08 00:47:28;;;;;;;8.52;4.00;;;;;;;12.78;100.00;101230.69;1001513;29;20411;-87
2023/08/08 00:47:59;;;;;;;6.63;3.58;;;;;;;12.79;100.00;101227.81;1004793;29;20310;-87
2023/08/08 00:48:32;;;;;;;4.35;2.40;;;;;;;12.85;100.00;101234.13;1006997;29;20057;-87
2023/08/08 00:49:04;;;;;;;5.95;2.65;;;;;;;12.80;100.00;101224.09;1013072;29;20040;-88
2023/08/08 00:49:35;;;;;;;8.45;3.17;;;;;;;12.59;100.00;101225.31;1006007;29;20531;-87
2023/08/08 00:50:08;;;;;;;8.90;3.65;;;;;;;12.76;100.00;101233.59;1014023;29;20296;-87
2023/08/08 00:50:42;;;;;;;6.40;3.55;;;;;;;12.87;100.00;101240.06;1004642;29;20804;-88
2023/08/08 00:51:14;;;;;;;6.45;3.20;;;;;;;12.88;100.00;101226.50;1005034;29;20065;-87
2023/08/08 00:51:46;;;;;;;5.22;3.35;;;;;;;12.77;100.00;101231.75;1006535;29;20314;-87
2023/08/08 00:52:18;;;;;;;5.85;3.10;;;;;;;12.86;100.00;101233.06;1007476;29;20306;-87
2023/08/08 00:52:50;;;;;;;5.65;4.15;;;;;;;12.92;100.00;101234.88;1003690;29;20306;-87
2023/08/08 00:53:25;;;;;;;5.72;3.28;;;;;;;12.96;100.00;101234.22;1005079;29;20346;-87
2023/08/08 00:53:57;;;;;;;7.05;3.13;;;;;;;12.99;100.00;101232.94;1005599;29;20045;-87
2023/08/08 00:54:30;;;;;;;8.05;3.80;;;;;;;13.02;100.00;101231.69;1007995;29;20354;-87
2023/08/08 00:55:02;;;;;;;5.38;4.00;;;;;;;12.98;100.00;101232.13;1006026;29;20049;-87
2023/08/08 00:55:33;;;;;;;9.00;3.42;;;;;;;13.03;100.00;101239.47;1000279;29;20613;-88
2023/08/08 00:56:06;;;;;;;7.38;3.90;;;;;;;13.03;100.00;101227.97;1004757;29;20346;-87
2023/08/08 00:56:38;;;;;;;8.43;3.58;;;;;;;13.05;100.00;101236.59;1004420;29;20313;-87
2023/08/08 00:57:09;;;;;;;9.35;3.50;;;;;;;13.05;100.00;101236.59;1017463;29;20044;-87
2023/08/08 00:57:41;;;;;;;6.40;3.67;;;;;;;12.93;100.00;101228.50;1006211;29;20314;-87
2023/08/08 00:58:13;;;;;;;6.93;4.55;;;;;;;12.99;100.00;101232.94;1004599;29;20321;-87
2023/08/08 00:58:46;;;;;;;5.18;4.10;;;;;;;13.05;100.00;101229.38;1004721;29;20309;-87
2023/08/08 00:59:18;;;;;;;11.02;3.92;;;;;;;13.07;100.00;101235.31;1005069;29;20306;-87
2023/08/08 00:59:51;;;;;;;9.45;4.38;;;;;;;13.09;100.00;101225.22;1003156;29;20140;-87
2023/08/08 01:00:22;;;;;;;4.47;3.63;;;;;;;13.07;100.00;101229.97;1008274;29;20807;-87
2023/08/08 01:00:57;;;;;;;6.38;3.33;;;;;;;13.12;100.00;101230.13;1019680;29;20044;-87
2023/08/08 01:01:29;;;;;;;4.28;3.50;;;;;;;13.10;100.00;101232.19;1008033;29;20044;-88
2023/08/08 01:02:01;;;;;;;8.73;4.32;;;;;;;13.11;100.00;101220.47;1004511;29;20407;-88
2023/08/08 01:02:33;;;;;;;10.45;4.35;;;;;;;13.10;100.00;101221.50;1004885;29;20317;-87
2023/08/08 01:03:05;;;;;;;20.95;7.57;;;;;;;13.09;100.00;101227.06;1007764;29;20316;-87
2023/08/08 01:03:37;;;;;;;6.82;3.80;;;;;;;13.05;100.00;101229.38;1005730;29;20046;-87
2023/08/08 01:04:08;;;;;;;10.75;3.72;;;;;;;13.13;100.00;101225.59;1004179;29;20046;-88
2023/08/08 01:04:40;;;;;;;9.80;4.13;;;;;;;13.15;100.00;101232.38;1004295;29;20041;-87
2023/08/08 01:05:12;;;;;;;7.45;4.43;;;;;;;13.13;100.00;101223.72;1005589;29;20294;-87
2023/08/08 01:05:48;;;;;;;7.85;4.10;;;;;;;13.14;100.00;101227.22;1000448;29;20504;-87
2023/08/08 01:06:27;;;;;;;11.20;4.13;;;;;;;13.14;100.00;101230.72;1008282;29;20293;-87
2023/08/08 01:07:09;;;;;;;8.82;3.58;;;;;;;13.05;100.00;101221.34;1013886;29;20049;-87
2023/08/08 01:07:46;;;;;;;4.93;3.72;;;;;;;13.09;100.00;101225.22;1007762;29;20041;-88
2023/08/08 01:08:22;;;;;;;7.80;3.50;;;;;;;13.15;100.00;101226.22;1006237;29;20045;-87
2023/08/08 01:08:58;;;;;;;7.32;3.92;;;;;;;13.03;100.00;101226.13;1003554;29;20068;-88
2023/08/08 01:09:35;;;;;;;4.65;3.50;;;;;;;13.14;100.00;101222.69;1003099;29;20065;-87
2023/08/08 01:10:14;;;;;;;7.10;4.78;;;;;;;13.14;100.00;101220.00;1013165;29;20044;-87
2023/08/08 01:10:46;;;;;;;8.23;4.20;;;;;;;13.14;100.00;101220.00;1012588;29;20048;-87
2023/08/08 01:11:17;;;;;;;5.75;4.10;;;;;;;13.17;100.00;101224.97;1004285;29;20049;-87
2023/08/08 01:11:50;;;;;;;4.93;3.80;;;;;;;13.17;100.00;101208.91;1005697;29;20049;-87
2023/08/08 01:12:23;;;;;;;12.40;5.60;;;;;;;13.17;100.00;101208.91;1012875;29;20691;-87
2023/08/08 01:13:00;;;;;;;9.70;4.43;;;;;;;13.22;100.00;101211.72;1006376;29;20041;-87
2023/08/08 01:13:32;;;;;;;8.82;4.20;;;;;;;13.20;100.00;101216.50;1007995;29;20037;-87
2023/08/08 01:14:05;;;;;;;8.02;4.85;;;;;;;13.20;100.00;101208.47;1009545;29;20496;-87
2023/08/08 01:14:38;;;;;;;4.30;3.90;;;;;;;13.20;100.00;101208.47;1005294;29;20306;-87
2023/08/08 01:15:10;;;;;;;4.85;3.97;;;;;;;13.17;100.00;101214.28;1012685;29;20308;-87
2023/08/08 01:15:43;;;;;;;5.63;4.05;;;;;;;13.18;100.00;101209.75;1005072;29;20560;-87
2023/08/08 01:16:15;;;;;;;8.23;3.83;;;;;;;13.19;100.00;101211.38;1005225;29;20322;-87
2023/08/08 01:16:47;;;;;;;10.40;3.75;;;;;;;13.18;100.00;101209.75;1009113;29;20049;-87
2023/08/08 01:17:19;;;;;;;8.73;4.20;;;;;;;13.18;100.00;101204.38;1008974;29;20340;-87
2023/08/08 01:17:51;;;;;;;10.13;4.05;;;;;;;13.08;100.00;101202.19;1004556;29;20508;-87
2023/08/08 01:18:24;;;;;;;8.93;3.90;;;;;;;13.10;100.00;101207.31;1005199;29;20139;-87
2023/08/08 01:18:57;;;;;;;5.97;3.25;;;;;;;13.13;100.00;101202.31;1010571;29;20189;-87
2023/08/08 01:19:30;;;;;;;6.10;3.60;;;;;;;13.14;100.00;101200.47;1004415;29;20576;-88
2023/08/08 01:20:04;;;;;;;6.28;4.22;;;;;;;13.15;100.00;101194.09;1000869;29;20048;-87
2023/08/08 01:20:38;;;;;;;4.85;3.80;;;;;;;13.10;100.00;101199.28;1009598;29;20341;-87
2023/08/08 01:21:10;;;;;;;7.00;4.38;;;;;;;13.15;100.00;101202.13;1007119;29;20396;-87
2023/08/08 01:21:43;;;;;;;5.97;4.22;;;;;;;12.93;100.00;101199.09;1004243;29;20801;-87
2023/08/08 01:22:23;;;;;;;5.70;4.38;;;;;;;13.09;100.00;101194.97;1004946;29;20705;-88
2023/08/08 01:22:55;;;;;;;6.18;4.00;;;;;;;13.10;100.00;101192.06;1004265;29;20697;-87
2023/08/08 01:23:35;;;;;;;9.30;4.93;;;;;;;13.08;100.00;101204.03;1003293;29;20049;-87
2023/08/08 01:24:18;;;;;;;6.68;4.38;;;;;;;13.06;100.00;101204.28;1008652;29;20170;-87
2023/08/08 01:24:50;;;;;;;7.78;4.22;;;;;;;13.09;100.00;101193.13;1008834;29;20143;-87
2023/08/08 01:25:23;;;;;;;10.80;4.05;;;;;;;13.13;100.00;101196.97;1009688;29;20342;-88
2023/08/08 01:25:56;;;;;;;9.88;4.95;;;;;;;13.09;100.00;101194.97;1003787;29;20398;-88
2023/08/08 01:26:28;;;;;;;6.88;4.68;;;;;;;13.06;100.00;101193.56;1009140;29;20318;-87
2023/08/08 01:27:00;;;;;;;10.52;4.18;;;;;;;13.00;100.00;101192.63;1007077;29;20330;-87
2023/08/08 01:27:32;;;;;;;4.38;3.95;;;;;;;13.04;100.00;101192.97;1006676;29;20366;-87
2023/08/08 01:28:05;;;;;;;7.72;3.97;;;;;;;13.00;100.00;101202.50;1007991;29;20863;-87
2023/08/08 01:28:37;;;;;;;5.57;4.00;;;;;;;12.99;100.00;101199.00;1007454;29;20090;-88
2023/08/08 01:29:08;;;;;;;5.43;3.58;;;;;;;13.06;100.00;101203.44;1003835;29;20045;-87
2023/08/08 01:29:41;;;;;;;8.10;5.05;;;;;;;13.03;100.00;101202.03;999734;29;20046;-88
2023/08/08 01:30:13;;;;;;;6.88;4.40;;;;;;;13.08;100.00;101199.50;998053;29;20362;-87
2023/08/08 01:30:45;;;;;;;7.13;4.20;;;;;;;13.05;100.00;101201.81;1005628;29;20057;-87
2023/08/08 01:31:16;;;;;;;6.82;4.78;;;;;;;13.05;100.00;101202.63;1011541;29;20040;-87
2023/08/08 01:31:48;;;;;;;6.32;4.18;;;;;;;13.01;100.00;101204.13;1012041;29;20321;-87
2023/08/08 01:32:20;;;;;;;6.72;4.47;;;;;;;12.74;100.00;101203.59;1006837;29;20673;-87
2023/08/08 01:32:51;;;;;;;8.82;4.60;;;;;;;12.72;100.00;101207.53;1008092;29;20048;-87
2023/08/08 01:33:23;;;;;;;11.20;4.55;;;;;;;12.85;100.00;101199.34;1008298;29;20153;-87
2023/08/08 01:33:55;;;;;;;8.00;4.45;;;;;;;12.91;100.00;101207.34;1000359;29;20306;-87
2023/08/08 01:34:27;;;;;;;8.55;4.95;;;;;;;12.93;100.00;101210.59;998883;29;20406;-87
2023/08/08 01:34:59;;;;;;;9.43;4.20;;;;;;;12.89;100.00;101205.94;1008611;29;20310;-87
2023/08/08 01:35:34;;;;;;;5.35;3.88;;;;;;;12.92;100.00;101208.16;1004233;29;20049;-88
2023/08/08 01:36:21;;;;;;;10.73;4.80;;;;;;;12.87;100.00;101216.81;994448;29;20062;-88
2023/08/08 01:36:58;;;;;;;8.55;4.75;;;;;;;12.86;100.00;101207.16;1003677;29;20060;-87
2023/08/08 01:37:35;;;;;;;5.45;4.47;;;;;;;12.84;100.00;101211.91;1004675;29;20345;-88
2023/08/08 01:38:31;;;;;;;7.15;4.55;;;;;;;12.91;100.00;101211.88;1000514;29;20374;-87
2023/08/08 01:39:05;;;;;;;5.60;4.18;;;;;;;12.93;100.00;101209.78;1001278;29;20061;-87
2023/08/08 01:39:37;;;;;;;7.10;4.95;;;;;;;12.98;100.00;101205.41;999212;29;20440;-87
2023/08/08 01:40:10;;;;;;;9.57;5.03;;;;;;;12.92;100.00;101205.47;999856;29;20318;-87
2023/08/08 01:40:43;;;;;;;8.13;4.50;;;;;;;12.99;100.00;101203.53;1004590;29;20069;-87
2023/08/08 01:41:15;;;;;;;9.15;4.80;;;;;;;12.85;100.00;101200.19;1006746;29;20349;-88
2023/08/08 01:41:48;;;;;;;6.32;4.72;;;;;;;12.87;100.00;101202.63;1003711;29;20050;-87
2023/08/08 01:42:21;;;;;;;7.82;4.93;;;;;;;12.87;100.00;101197.28;1004370;29;20309;-88
2023/08/08 01:42:53;;;;;;;9.10;4.72;;;;;;;12.94;100.00;101198.88;1000484;29;20307;-87
2023/08/08 01:43:25;;;;;;;16.65;5.03;;;;;;;12.93;100.00;101193.75;1002939;29;20302;-88
2023/08/08 01:43:57;;;;;;;11.05;5.43;;;;;;;12.94;100.00;101198.88;1008463;29;20301;-88
2023/08/08 01:44:29;;;;;;;15.13;5.22;;;;;;;12.81;100.00;101188.28;1003765;29;20432;-87
2023/08/08 01:45:01;;;;;;;6.65;4.20;;;;;;;12.86;100.00;101195.66;1000175;29;20306;-88
2023/08/08 01:45:32;;;;;;;7.75;4.70;;;;;;;12.83;100.00;101196.91;994334;29;20059;-87
2023/08/08 01:46:04;;;;;;;7.07;5.00;;;;;;;12.77;100.00;101197.00;999922;29;20397;-88
2023/08/08 01:46:38;;;;;;;10.60;5.43;;;;;;;12.63;100.00;101197.13;1011304;29;20098;-87
2023/08/08 01:47:10;;;;;;;7.25;5.05;;;;;;;12.75;100.00;101194.53;1003947;29;20050;-88
2023/08/08 01:47:42;;;;;;;6.90;4.25;;;;;;;12.73;100.00;101195.81;998705;29;20295;-87
2023/08/08 01:48:13;;;;;;;5.85;5.20;;;;;;;12.73;100.00;101195.81;1003721;29;20057;-87
2023/08/08 01:48:46;;;;;;;6.85;4.35;;;;;;;12.75;100.00;101199.88;1013190;29;20048;-87
2023/08/08 01:49:18;;;;;;;5.57;4.00;;;;;;;12.78;100.00;101195.94;1001199;29;20132;-88
2023/08/08 01:49:50;;;;;;;8.65;4.53;;;;;;;12.80;100.00;101191.19;1004331;29;20052;-88
2023/08/08 01:50:22;;;;;;;10.23;4.97;;;;;;;12.84;100.00;101200.41;1006402;29;20302;-88
2023/08/08 01:50:54;;;;;;;8.13;4.63;;;;;;;12.81;100.00;101201.66;997775;29;20540;-88
2023/08/08 01:51:26;;;;;;;8.52;4.45;;;;;;;12.80;100.00;101207.22;1002624;29;20516;-87
2023/08/08 01:51:58;;;;;;;8.50;5.18;;;;;;;12.80;100.00;101199.22;1000648;29;20302;-87
2023/08/08 01:52:30;;;;;;;5.93;4.85;;;;;;;12.62;100.00;101200.03;1001510;29;20435;-88
2023/08/08 01:53:02;;;;;;;6.00;4.50;;;;;;;12.61;100.00;101195.72;1004526;29;20302;-87
2023/08/08 01:53:34;;;;;;;9.95;5.15;;;;;;;12.63;100.00;101197.13;1002147;29;20038;-87
2023/08/08 01:54:05;;;;;;;6.68;4.35;;;;;;;12.72;100.00;101196.84;1000462;29;20314;-86
2023/08/08 01:54:37;;;;;;;9.93;5.25;;;;;;;12.66;100.00;101204.72;1006822;29;20079;-88
2023/08/08 01:55:09;;;;;;;9.70;5.15;;;;;;;12.68;100.00;101193.78;1012749;29;20096;-87
2023/08/08 01:55:41;;;;;;;7.57;4.70;;;;;;;12.73;100.00;101201.16;1005780;29;20302;-88
2023/08/08 01:56:12;;;;;;;8.52;5.53;;;;;;;12.75;100.00;101193.72;1006022;29;20298;-87
2023/08/08 01:56:44;;;;;;;7.15;4.57;;;;;;;12.65;100.00;101197.72;998149;29;20057;-87
2023/08/08 01:57:16;;;;;;;8.95;4.88;;;;;;;12.60;100.00;101186.03;1005098;29;20128;-87
2023/08/08 01:57:47;;;;;;;7.85;6.32;;;;;;;12.63;100.00;101191.78;997628;29;20318;-87
2023/08/08 01:58:19;;;;;;;10.98;5.05;;;;;;;12.67;100.00;101198.31;1002163;29;20303;-87
2023/08/08 01:58:50;;;;;;;10.48;5.13;;;;;;;12.68;100.00;101186.59;1009020;29;20041;-87
2023/08/08 01:59:22;;;;;;;8.02;5.20;;;;;;;12.73;100.00;101193.94;1009086;29;20320;-87
2023/08/08 01:59:54;;;;;;;10.30;5.20;;;;;;;12.76;100.00;101195.34;1005802;29;20511;-87
2023/08/08 02:00:26;;;;;;;6.40;4.93;;;;;;;12.76;100.00;101185.47;1006329;29;20318;-87
2023/08/08 02:00:58;;;;;;;6.32;4.28;;;;;;;12.71;100.00;101188.00;1000604;29;20313;-87
2023/08/08 02:01:31;;;;;;;11.32;5.38;;;;;;;12.64;100.00;101182.72;1001632;29;20318;-87
2023/08/08 02:02:03;;;;;;;11.27;4.63;;;;;;;12.76;100.00;101190.00;1001335;29;20045;-88
2023/08/08 02:02:35;;;;;;;10.27;4.50;;;;;;;12.73;100.00;101185.09;1005946;29;20785;-87
2023/08/08 02:03:07;;;;;;;8.98;4.82;;;;;;;12.67;100.00;101181.47;1009386;29;20041;-87
2023/08/08 02:03:39;;;;;;;8.32;4.93;;;;;;;12.64;100.00;101187.25;1004342;29;20124;-87
2023/08/08 02:04:11;;;;;;;5.70;4.15;;;;;;;12.75;100.00;101183.03;1001591;29;20050;-87
2023/08/08 02:04:43;;;;;;;7.38;4.85;;;;;;;12.77;100.00;101186.28;1009025;29;20048;-87
2023/08/08 02:05:14;;;;;;;7.38;5.28;;;;;;;12.80;100.00;101191.19;1004136;29;20679;-87
2023/08/08 02:05:46;;;;;;;9.30;4.65;;;;;;;12.82;100.00;101184.59;1010085;29;20303;-87
2023/08/08 02:06:18;;;;;;;13.93;5.45;;;;;;;12.73;100.00;101191.28;1005080;29;20310;-88
2023/08/08 02:06:50;;;;;;;5.88;5.22;;;;;;;12.81;100.00;101192.81;1005960;29;21681;-87
2023/08/08 02:07:40;;;;;;;9.25;4.63;;;;;;;12.82;100.00;101194.47;1004370;29;20369;-87
2023/08/08 02:08:12;;;;;;;6.85;6.03;;;;;;;12.74;100.00;101189.41;1006031;29;20351;-87
2023/08/08 02:08:45;;;;;;;7.28;4.90;;;;;;;12.81;100.00;101190.16;1001960;29;20386;-87
2023/08/08 02:09:17;;;;;;;12.00;5.75;;;;;;;12.83;100.00;101194.25;997784;29;20295;-87
2023/08/08 02:09:52;;;;;;;10.55;5.82;;;;;;;12.86;100.00;101184.94;1000167;29;20311;-87
2023/08/08 02:10:23;;;;;;;10.40;5.93;;;;;;;12.86;100.00;101191.13;1004380;29;20314;-88
2023/08/08 02:10:55;;;;;;;14.88;5.30;;;;;;;12.81;100.00;101198.19;999858;29;20419;-87
2023/08/08 02:11:27;;;;;;;15.45;5.00;;;;;;;12.83;100.00;101188.88;999970;29;20970;-88
2023/08/08 02:11:58;;;;;;;8.90;4.75;;;;;;;12.88;100.00;101188.25;1003056;29;20305;-87
2023/08/08 02:12:31;;;;;;;7.20;4.72;;;;;;;12.71;100.00;101192.53;1003865;29;20579;-88
2023/08/08 02:13:02;;;;;;;8.85;4.93;;;;;;;12.80;100.00;101180.50;1008491;29;20041;-88
2023/08/08 02:13:34;;;;;;;10.20;4.50;;;;;;;12.89;100.00;101187.22;1001923;29;20318;-88
2023/08/08 02:14:06;;;;;;;9.40;4.97;;;;;;;12.88;100.00;101189.06;1000688;29;20307;-88
2023/08/08 02:14:37;;;;;;;9.68;4.70;;;;;;;12.87;100.00;101191.94;1012068;29;20327;-87
2023/08/08 02:15:09;;;;;;;9.57;5.30;;;;;;;12.91;100.00;101185.13;1012225;29;20316;-88
2023/08/08 02:15:41;;;;;;;7.30;4.88;;;;;;;12.95;100.00;101180.97;1012028;29;20301;-88
2023/08/08 02:16:12;;;;;;;7.50;5.18;;;;;;;12.94;100.00;101188.16;1008122;29;20366;-87
2023/08/08 02:16:44;;;;;;;9.00;4.53;;;;;;;12.92;100.00;101186.75;1008103;29;20309;-87
2023/08/08 02:17:16;;;;;;;7.93;4.68;;;;;;;12.97;100.00;101182.38;1004380;29;20311;-87
2023/08/08 02:17:50;;;;;;;8.13;4.28;;;;;;;12.82;100.00;101183.75;1004394;29;20831;-88
2023/08/08 02:18:22;;;;;;;7.80;4.32;;;;;;;12.90;100.00;101180.81;1000838;29;20678;-88
2023/08/08 02:18:53;;;;;;;12.20;4.95;;;;;;;12.92;100.00;101181.41;1000061;29;20355;-88
2023/08/08 02:19:25;;;;;;;11.35;4.88;;;;;;;12.97;100.00;101192.25;1004223;29;20362;-88
2023/08/08 02:19:58;;;;;;;7.43;5.07;;;;;;;12.98;100.00;101178.66;1008040;29;20312;-87
2023/08/08 02:20:29;;;;;;;8.30;4.82;;;;;;;12.96;100.00;101180.75;1008511;29;20654;-88
2023/08/08 02:21:01;;;;;;;7.43;4.45;;;;;;;12.95;100.00;101181.78;1000487;29;20313;-88
2023/08/08 02:21:33;;;;;;;8.45;4.75;;;;;;;12.98;100.00;101177.84;1000607;29;20773;-87
2023/08/08 02:22:04;;;;;;;10.00;4.28;;;;;;;12.96;100.00;101175.38;1001156;29;20669;-88
2023/08/08 02:22:36;;;;;;;8.20;5.32;;;;;;;12.97;100.00;101176.22;1004652;29;20075;-88
2023/08/08 02:23:07;;;;;;;7.25;4.10;;;;;;;12.95;100.00;101172.94;1004250;29;20668;-88
2023/08/08 02:23:39;;;;;;;7.13;4.95;;;;;;;12.98;100.00;101172.50;1008378;29;20312;-87
2023/08/08 02:24:11;;;;;;;7.57;4.88;;;;;;;12.98;100.00;101169.81;1008311;29;20317;-88
2023/08/08 02:24:42;;;;;;;11.82;5.30;;;;;;;12.79;100.00;101176.19;1014755;29;20383;-88
2023/08/08 02:25:14;;;;;;;6.15;4.75;;;;;;;12.89;100.00;101176.50;1004417;29;20312;-88
2023/08/08 02:25:45;;;;;;;7.43;4.82;;;;;;;12.89;100.00;101168.50;1008242;29;20308;-88
2023/08/08 02:26:17;;;;;;;10.63;5.60;;;;;;;12.96;100.00;101174.56;1008147;29;20384;-88
2023/08/08 02:26:49;;;;;;;10.23;5.20;;;;;;;12.98;100.00;101172.50;1008047;29;20321;-88
2023/08/08 02:27:20;;;;;;;10.85;4.70;;;;;;;12.97;100.00;101173.53;1000483;29;20046;-88
2023/08/08 02:27:52;;;;;;;10.00;4.90;;;;;;;12.98;100.00;101173.31;1004124;29;20302;-88
2023/08/08 02:28:23;;;;;;;9.15;5.15;;;;;;;12.97;100.00;101165.50;1004472;29;20056;-88
2023/08/08 02:28:56;;;;;;;10.48;4.63;;;;;;;12.99;100.00;101174.13;1000794;29;20439;-88
2023/08/08 02:29:28;;;;;;;10.57;4.65;;;;;;;13.00;100.00;101167.72;1000283;29;20046;-87
2023/08/08 02:29:59;;;;;;;8.45;4.38;;;;;;;13.00;100.00;101165.06;1004291;29;20049;-88